createdAt,value
2017-08-19T00:00:27.703Z,8.67
2017-08-19T00:05:32.493Z,2.97
2017-08-19T00:10:39.295Z,6.17
2017-08-19T00:15:45.339Z,2.50
2017-08-19T00:20:47.711Z,5.93
2017-08-19T00:25:52.394Z,5.90
2017-08-19T00:30:57.239Z,3.60
2017-08-19T00:36:00.403Z,3.00
2017-08-19T00:41:08.358Z,7.03
2017-08-19T00:46:12.463Z,4.00
2017-08-19T00:51:17.005Z,7.43
2017-08-19T00:56:19.278Z,6.93
2017-08-19T01:01:21.537Z,6.63
2017-08-19T01:06:24.236Z,7.40
2017-08-19T01:11:26.590Z,11.93
2017-08-19T01:16:29.144Z,14.80
2017-08-19T01:21:31.771Z,11.53
2017-08-19T01:26:52.100Z,10.60
2017-08-19T01:31:54.193Z,11.80
2017-08-19T01:36:56.154Z,14.37
2017-08-19T01:41:58.087Z,16.43
2017-08-19T01:47:00.615Z,19.17
2017-08-19T01:52:04.271Z,16.90
2017-08-19T01:57:06.799Z,19.20
2017-08-19T02:02:09.114Z,18.47
2017-08-19T02:07:11.850Z,22.53
2017-08-19T02:12:13.775Z,25.07
2017-08-19T02:17:15.781Z,24.50
2017-08-19T02:22:17.715Z,24.43
2017-08-19T02:27:19.651Z,24.30
2017-08-19T02:32:21.713Z,28.07
2017-08-19T02:37:23.671Z,29.53
2017-08-19T02:42:25.646Z,27.27
2017-08-19T02:47:27.621Z,29.50
2017-08-19T02:52:29.672Z,31.13
2017-08-19T02:57:31.620Z,34.13
2017-08-19T03:02:34.813Z,23.60
2017-08-19T03:07:38.493Z,28.83
2017-08-19T03:12:41.041Z,22.17
2017-08-19T03:17:44.182Z,24.63
2017-08-19T03:22:53.604Z,25.60
2017-08-19T03:27:57.059Z,30.83
2017-08-19T03:32:58.996Z,30.10
2017-08-19T03:38:01.004Z,25.70
2017-08-19T03:43:02.945Z,31.97
2017-08-19T03:48:05.987Z,35.43
2017-08-19T03:53:08.305Z,32.90
2017-08-19T03:58:10.280Z,31.47
2017-08-19T04:03:12.564Z,29.10
2017-08-19T04:08:14.634Z,34.13
2017-08-19T04:13:16.658Z,24.20
2017-08-19T04:18:19.000Z,30.37
2017-08-19T04:23:20.971Z,19.13
2017-08-19T04:28:22.972Z,21.53
2017-08-19T04:33:24.965Z,18.07
2017-08-19T04:38:26.924Z,22.73
2017-08-19T04:43:28.879Z,30.60
2017-08-19T04:48:30.823Z,15.40
2017-08-19T04:53:33.056Z,20.03
2017-08-19T04:58:36.287Z,25.03
2017-08-19T05:03:38.247Z,18.60
2017-08-19T05:08:40.566Z,16.40
2017-08-19T05:13:46.909Z,16.73
2017-08-19T05:18:53.086Z,26.00
2017-08-19T05:23:55.184Z,17.53
2017-08-19T05:28:57.205Z,18.07
2017-08-19T05:33:59.563Z,26.90
2017-08-19T05:39:01.564Z,19.90
2017-08-19T05:44:03.547Z,17.73
2017-08-19T05:49:05.468Z,12.47
2017-08-19T05:54:07.424Z,15.17
2017-08-19T05:59:10.283Z,21.23
2017-08-19T06:04:12.343Z,14.50
2017-08-19T06:09:14.324Z,16.93
2017-08-19T06:14:16.251Z,15.37
2017-08-19T06:19:18.251Z,22.03
2017-08-19T06:24:20.211Z,22.87
2017-08-19T06:29:22.358Z,17.23
2017-08-19T06:34:24.307Z,24.80
2017-08-19T06:39:26.257Z,19.40
2017-08-19T06:44:28.197Z,15.83
2017-08-19T06:49:30.265Z,17.83
2017-08-19T06:54:32.220Z,30.73
2017-08-19T06:59:39.944Z,38.63
2017-08-19T07:04:42.241Z,15.47
2017-08-19T07:09:44.653Z,21.63
2017-08-19T07:14:46.656Z,24.53
2017-08-19T07:19:48.625Z,17.47
2017-08-19T07:24:50.624Z,16.63
2017-08-19T07:29:52.592Z,20.77
2017-08-19T07:34:54.547Z,13.70
2017-08-19T07:39:56.512Z,20.43
2017-08-19T07:44:58.469Z,14.30
2017-08-19T07:50:00.566Z,24.93
2017-08-19T07:55:02.527Z,19.53
2017-08-19T08:00:04.472Z,29.00
2017-08-19T08:05:06.571Z,19.03
2017-08-19T08:10:08.582Z,18.13
2017-08-19T08:15:10.560Z,13.40
2017-08-19T08:20:12.622Z,13.33
2017-08-19T08:25:14.892Z,22.93
2017-08-19T08:30:16.844Z,17.20
2017-08-19T08:35:19.160Z,14.20
2017-08-19T08:40:21.356Z,16.60
2017-08-19T08:45:23.589Z,9.80
2017-08-19T08:50:25.888Z,18.23
2017-08-19T08:55:28.107Z,17.23
2017-08-19T09:00:37.011Z,19.20
2017-08-19T09:05:39.004Z,16.93
2017-08-19T09:10:40.963Z,11.50
2017-08-19T09:15:42.935Z,8.87
2017-08-19T09:20:44.873Z,20.20
2017-08-19T09:25:46.815Z,13.80
2017-08-19T09:30:48.775Z,14.90
2017-08-19T09:35:50.733Z,22.30
2017-08-19T09:40:52.797Z,11.63
2017-08-19T09:45:58.458Z,13.33
2017-08-19T09:51:01.374Z,16.27
2017-08-19T09:56:03.552Z,19.67
2017-08-19T10:01:05.612Z,14.93
2017-08-19T10:06:11.431Z,15.87
2017-08-19T10:11:22.428Z,15.53
2017-08-19T10:16:24.611Z,20.90
2017-08-19T10:21:26.594Z,12.13
2017-08-19T10:26:28.589Z,11.00
2017-08-19T10:31:33.402Z,21.97
2017-08-19T10:36:36.213Z,24.70
2017-08-19T10:41:38.408Z,14.83
2017-08-19T10:46:40.541Z,12.67
2017-08-19T10:51:42.615Z,19.80
2017-08-19T10:56:45.739Z,22.23
2017-08-19T11:01:49.048Z,16.63
2017-08-19T11:07:06.820Z,10.80
2017-08-19T11:12:10.629Z,7.60
2017-08-19T11:17:16.672Z,16.63
2017-08-19T11:22:19.624Z,15.73
2017-08-19T11:27:22.748Z,8.50
2017-08-19T11:32:25.889Z,12.23
2017-08-19T11:37:28.842Z,12.53
2017-08-19T11:42:30.944Z,18.43
2017-08-19T11:47:33.424Z,18.53
2017-08-19T11:52:36.610Z,13.10
2017-08-19T11:57:38.645Z,9.70
2017-08-19T12:02:40.773Z,16.93
2017-08-19T12:07:42.850Z,16.40
2017-08-19T12:12:44.839Z,11.57
2017-08-19T12:17:46.932Z,19.87
2017-08-19T12:22:48.916Z,16.00
2017-08-19T12:27:55.377Z,19.83
2017-08-19T12:33:01.984Z,15.93
2017-08-19T12:38:04.225Z,7.93
2017-08-19T12:43:06.452Z,9.00
2017-08-19T12:48:08.519Z,7.20
2017-08-19T12:53:10.496Z,8.63
2017-08-19T12:58:12.446Z,9.13
2017-08-19T13:03:15.676Z,18.07
2017-08-19T13:08:18.945Z,11.67
2017-08-19T13:13:22.228Z,7.77
2017-08-19T13:18:25.419Z,6.60
2017-08-19T13:23:28.611Z,5.63
2017-08-19T13:28:31.883Z,5.30
2017-08-19T13:33:35.091Z,9.50
2017-08-19T13:38:37.761Z,8.83
2017-08-19T13:43:40.916Z,7.40
2017-08-19T13:48:44.292Z,8.63
2017-08-19T13:53:47.404Z,6.60
2017-08-19T13:58:50.562Z,6.63
2017-08-19T14:03:53.891Z,6.60
2017-08-19T14:08:58.019Z,7.80
2017-08-19T14:14:00.451Z,7.33
2017-08-19T14:19:03.691Z,14.00
2017-08-19T14:24:06.801Z,5.60
2017-08-19T14:29:10.015Z,7.00
2017-08-19T14:34:13.172Z,8.50
2017-08-19T14:39:15.198Z,16.03
2017-08-19T14:44:17.822Z,4.53
2017-08-19T14:49:21.047Z,4.30
2017-08-19T14:54:24.168Z,13.53
2017-08-19T14:59:27.387Z,9.73
2017-08-19T15:04:30.538Z,11.40
2017-08-19T15:09:33.804Z,9.00
2017-08-19T15:14:37.022Z,11.07
2017-08-19T15:19:40.219Z,5.70
2017-08-19T15:24:43.945Z,4.30
2017-08-19T15:29:47.073Z,7.10
2017-08-19T15:34:49.045Z,3.40
2017-08-19T15:39:51.466Z,3.70
2017-08-19T15:44:54.506Z,1.67
2017-08-19T15:49:57.648Z,2.37
2017-08-19T15:55:00.914Z,6.80
2017-08-19T16:00:04.215Z,9.80
2017-08-19T16:05:07.359Z,2.93
2017-08-19T16:10:10.571Z,2.57
2017-08-19T16:15:13.825Z,6.30
2017-08-19T16:20:16.979Z,6.57
2017-08-19T16:25:20.159Z,3.23
2017-08-19T16:30:23.190Z,2.40
2017-08-19T16:35:26.182Z,4.50
2017-08-19T16:40:28.638Z,7.37
2017-08-19T16:45:31.033Z,6.73
2017-08-19T16:50:33.943Z,2.30
2017-08-19T16:55:35.926Z,4.20
2017-08-19T17:00:38.713Z,2.27
2017-08-19T17:05:41.843Z,2.30
2017-08-19T17:10:44.962Z,2.80
2017-08-19T17:15:48.117Z,2.20
2017-08-19T17:20:51.407Z,2.90
2017-08-19T17:25:54.611Z,5.50
2017-08-19T17:30:57.948Z,3.60
2017-08-19T17:36:01.228Z,4.43
2017-08-19T17:41:04.551Z,5.00
2017-08-19T17:46:07.690Z,8.73
2017-08-19T17:51:10.810Z,11.63
2017-08-19T17:56:14.077Z,3.70
2017-08-19T18:01:17.309Z,4.07
2017-08-19T18:06:20.597Z,2.30
2017-08-19T18:11:23.838Z,5.70
2017-08-19T18:16:26.991Z,2.70
2017-08-19T18:21:30.319Z,3.33
2017-08-19T18:26:33.681Z,9.97
2017-08-19T18:31:36.885Z,3.73
2017-08-19T18:36:40.105Z,3.83
2017-08-19T18:41:43.319Z,3.30
2017-08-19T18:46:46.502Z,3.10
2017-08-19T18:51:48.464Z,11.43
2017-08-19T18:56:50.590Z,8.23
2017-08-19T19:01:52.738Z,1.70
2017-08-19T19:06:54.792Z,5.90
2017-08-19T19:11:57.774Z,3.17
2017-08-19T19:16:59.921Z,5.80
2017-08-19T19:22:01.983Z,2.70
2017-08-19T19:27:04.151Z,4.50
2017-08-19T19:32:06.198Z,2.50
2017-08-19T19:37:08.184Z,4.03
2017-08-19T19:42:10.342Z,2.10
2017-08-19T19:47:12.521Z,3.97
2017-08-19T19:52:14.495Z,3.60
2017-08-19T19:57:17.644Z,2.97
2017-08-19T20:02:21.049Z,3.90
2017-08-19T20:07:24.380Z,3.60
2017-08-19T20:12:27.588Z,4.40
2017-08-19T20:17:30.817Z,1.80
2017-08-19T20:22:34.119Z,2.30
2017-08-19T20:27:37.448Z,2.63
2017-08-19T20:32:40.990Z,4.47
2017-08-19T20:37:43.092Z,5.20
2017-08-19T20:42:46.112Z,6.00
2017-08-19T20:47:48.614Z,7.57
2017-08-19T20:52:50.866Z,5.83
2017-08-19T20:57:55.412Z,5.60
2017-08-19T21:02:57.574Z,2.17
2017-08-19T21:07:59.762Z,5.97
2017-08-19T21:13:01.890Z,4.03
2017-08-19T21:18:05.608Z,3.97
2017-08-19T21:23:07.889Z,10.60
2017-08-19T21:28:09.960Z,5.67
2017-08-19T21:33:12.004Z,8.67
2017-08-19T21:38:14.207Z,8.37
2017-08-19T21:43:16.474Z,12.63
2017-08-19T21:48:18.612Z,5.60
2017-08-19T21:53:20.661Z,9.87
2017-08-19T21:58:22.704Z,5.97
2017-08-19T22:03:24.640Z,5.03
2017-08-19T22:08:26.633Z,10.20
2017-08-19T22:13:28.789Z,5.70
2017-08-19T22:18:30.748Z,12.03
2017-08-19T22:23:32.704Z,8.50
2017-08-19T22:28:34.664Z,14.50
2017-08-19T22:33:36.632Z,16.13
2017-08-19T22:38:38.584Z,15.90
2017-08-19T22:43:40.552Z,13.03
2017-08-19T22:48:42.540Z,16.60
2017-08-19T22:53:44.492Z,16.40
2017-08-19T22:58:46.538Z,15.63
2017-08-19T23:03:48.592Z,21.23
2017-08-19T23:08:50.601Z,18.03
2017-08-19T23:13:52.586Z,20.77
2017-08-19T23:18:54.560Z,25.13
2017-08-19T23:23:56.551Z,18.80
2017-08-19T23:28:58.540Z,20.07
2017-08-19T23:34:00.542Z,21.97
2017-08-19T23:39:02.637Z,19.30
2017-08-19T23:44:04.609Z,23.33
2017-08-19T23:49:06.524Z,24.20
2017-08-19T23:54:08.471Z,24.97
2017-08-19T23:59:10.475Z,22.77
